createdAt,value
2022-12-23T00:02:20.172Z,14.60
2022-12-23T00:07:24.458Z,16.50
2022-12-23T00:12:44.607Z,14.77
2022-12-23T00:17:47.388Z,15.75
2022-12-23T00:23:06.822Z,17.20
2022-12-23T00:28:11.656Z,14.88
2022-12-23T00:33:15.563Z,16.33
2022-12-23T00:38:41.259Z,16.25
2022-12-23T00:43:44.022Z,15.55
2022-12-23T00:49:12.569Z,15.63
2022-12-23T00:54:17.588Z,15.77
2022-12-23T00:59:20.934Z,21.77
2022-12-23T01:04:41.046Z,15.90
2022-12-23T01:09:45.383Z,16.33
2022-12-23T01:14:48.143Z,16.27
2022-12-23T01:19:51.384Z,15.63
2022-12-23T01:24:55.495Z,16.92
2022-12-23T01:29:58.257Z,16.35
2022-12-23T01:35:00.978Z,17.20
2022-12-23T01:40:05.944Z,17.50
2022-12-23T01:45:15.522Z,17.60
2022-12-23T01:50:23.582Z,17.08
2022-12-23T01:55:31.530Z,18.70
2022-12-23T02:00:51.864Z,18.77
2022-12-23T02:06:14.988Z,19.67
2022-12-23T02:11:32.919Z,19.23
2022-12-23T02:16:43.472Z,19.93
2022-12-23T02:22:18.158Z,21.42
2022-12-23T02:27:28.966Z,21.77
2022-12-23T02:32:44.531Z,19.55
2022-12-23T02:37:54.634Z,20.23
2022-12-23T02:43:03.049Z,21.25
2022-12-23T02:53:18.649Z,19.63
2022-12-23T02:58:25.900Z,19.30
2022-12-23T03:03:30.491Z,17.95
2022-12-23T03:08:45.066Z,20.67
2022-12-23T03:14:09.159Z,19.55
2022-12-23T03:19:22.722Z,19.83
2022-12-23T03:24:33.677Z,20.92
2022-12-23T03:29:42.643Z,19.33
2022-12-23T03:34:51.062Z,21.08
2022-12-23T03:39:56.221Z,21.58
2022-12-23T03:50:28.717Z,22.38
2022-12-23T03:55:35.522Z,21.83
2022-12-23T04:00:46.163Z,22.45
2022-12-23T04:05:54.536Z,22.08
2022-12-23T04:10:58.022Z,24.08
2022-12-23T04:16:01.447Z,22.92
2022-12-23T04:21:06.090Z,21.40
2022-12-23T04:26:08.844Z,22.48
2022-12-23T04:31:11.727Z,23.10
2022-12-23T04:36:16.265Z,22.88
2022-12-23T04:41:19.000Z,23.25
2022-12-23T04:46:21.983Z,21.13
2022-12-23T04:51:26.149Z,22.23
2022-12-23T04:56:28.882Z,20.70
2022-12-23T05:01:31.693Z,20.58
2022-12-23T05:06:36.130Z,21.27
2022-12-23T05:11:42.370Z,23.15
2022-12-23T05:16:45.552Z,22.58
2022-12-23T05:21:49.697Z,25.58
2022-12-23T05:26:59.439Z,24.77
2022-12-23T05:32:03.032Z,24.30
2022-12-23T05:37:07.966Z,25.60
2022-12-23T05:42:10.747Z,26.90
2022-12-23T05:47:13.451Z,26.55
2022-12-23T05:52:17.515Z,26.70
2022-12-23T05:57:20.348Z,29.25
2022-12-23T06:02:25.093Z,27.33
2022-12-23T06:07:29.351Z,26.35
2022-12-23T06:12:32.413Z,25.52
2022-12-23T06:17:35.164Z,25.30
2022-12-23T06:29:03.641Z,26.10
2022-12-23T06:34:41.641Z,26.08
2022-12-23T06:39:48.311Z,27.15
2022-12-23T06:44:51.350Z,23.98
2022-12-23T06:49:56.508Z,25.45
2022-12-23T06:55:13.357Z,23.83
2022-12-23T07:00:17.449Z,24.25
2022-12-23T07:05:20.405Z,21.98
2022-12-23T07:10:24.585Z,19.80
2022-12-23T07:15:27.351Z,20.33
2022-12-23T07:20:30.282Z,21.45
2022-12-23T07:25:34.490Z,19.50
2022-12-23T07:30:37.603Z,19.15
2022-12-23T07:35:42.172Z,19.25
2022-12-23T07:40:49.632Z,18.90
2022-12-23T07:45:59.268Z,18.13
2022-12-23T07:51:03.194Z,19.02
2022-12-23T07:56:08.068Z,17.23
2022-12-23T08:01:11.113Z,19.80
2022-12-23T08:06:16.239Z,20.52
2022-12-23T08:11:20.561Z,19.65
2022-12-23T08:16:23.635Z,20.85
2022-12-23T08:21:26.428Z,19.98
2022-12-23T08:26:30.502Z,19.63
2022-12-23T08:31:33.506Z,19.33
2022-12-23T08:36:37.588Z,20.38
2022-12-23T08:41:44.491Z,18.63
2022-12-23T08:46:47.355Z,19.02
2022-12-23T08:51:50.402Z,18.77
2022-12-23T08:56:54.563Z,18.20
2022-12-23T09:01:59.781Z,19.35
2022-12-23T09:07:02.719Z,20.23
2022-12-23T09:12:07.155Z,17.67
2022-12-23T09:17:09.983Z,23.67
2022-12-23T09:22:13.617Z,18.63
2022-12-23T09:27:17.905Z,17.70
2022-12-23T09:32:20.738Z,19.20
2022-12-23T09:37:23.648Z,16.88
2022-12-23T09:42:45.467Z,17.13
2022-12-23T09:47:49.669Z,18.92
2022-12-23T09:53:00.582Z,19.60
2022-12-23T09:58:10.802Z,19.38
2022-12-23T10:03:21.524Z,18.30
2022-12-23T10:08:32.398Z,16.02
2022-12-23T10:13:41.007Z,18.02
2022-12-23T10:18:51.254Z,17.73
2022-12-23T10:23:55.474Z,17.05
2022-12-23T10:29:10.904Z,16.20
2022-12-23T10:34:22.150Z,14.68
2022-12-23T10:39:32.646Z,13.93
2022-12-23T10:44:58.877Z,12.98
2022-12-23T10:50:14.306Z,13.30
2022-12-23T10:55:28.555Z,13.20
2022-12-23T11:00:41.035Z,12.77
2022-12-23T11:05:45.503Z,12.55
2022-12-23T11:10:49.230Z,13.50
2022-12-23T11:15:53.677Z,12.45
2022-12-23T11:21:04.336Z,13.88
2022-12-23T11:26:10.026Z,13.57
2022-12-23T11:31:16.151Z,13.88
2022-12-23T11:36:25.357Z,15.00
2022-12-23T11:41:30.661Z,15.07
2022-12-23T11:46:36.056Z,16.08
2022-12-23T11:51:39.700Z,14.40
2022-12-23T11:56:42.997Z,14.30
2022-12-23T12:01:50.002Z,12.93
2022-12-23T12:06:56.628Z,12.25
2022-12-23T12:12:06.597Z,12.15
2022-12-23T12:17:19.025Z,11.60
2022-12-23T12:22:32.241Z,13.55
2022-12-23T12:27:39.303Z,12.20
2022-12-23T12:32:51.553Z,12.88
2022-12-23T12:37:58.500Z,13.02
2022-12-23T12:43:12.857Z,13.82
2022-12-23T12:48:33.103Z,12.88
2022-12-23T12:53:39.039Z,12.95
2022-12-23T12:58:45.593Z,13.10
2022-12-23T13:04:08.716Z,12.15
2022-12-23T13:09:23.110Z,10.70
2022-12-23T13:14:35.959Z,11.55
2022-12-23T13:19:48.047Z,10.98
2022-12-23T13:24:58.612Z,10.32
2022-12-23T13:30:06.176Z,9.85
2022-12-23T13:35:26.554Z,12.37
2022-12-23T13:40:38.873Z,10.52
2022-12-23T13:45:43.659Z,11.65
2022-12-23T13:50:56.586Z,12.23
2022-12-23T13:56:12.601Z,10.65
2022-12-23T14:01:34.139Z,9.95
2022-12-23T14:06:45.881Z,9.07
2022-12-23T14:11:48.862Z,10.50
2022-12-23T14:17:05.060Z,11.18
2022-12-23T14:22:25.935Z,10.73
2022-12-23T14:27:47.332Z,10.98
2022-12-23T14:32:52.883Z,11.23
2022-12-23T14:38:30.898Z,11.25
2022-12-23T14:43:55.600Z,10.82
2022-12-23T14:49:40.111Z,10.70
2022-12-23T14:54:55.282Z,10.30
2022-12-23T15:00:10.786Z,11.80
2022-12-23T15:05:14.753Z,13.13
2022-12-23T15:10:21.280Z,14.95
2022-12-23T15:15:28.033Z,14.75
2022-12-23T15:20:30.830Z,12.70
2022-12-23T15:25:37.760Z,13.93
2022-12-23T15:30:50.734Z,16.58
2022-12-23T15:35:53.782Z,12.80
2022-12-23T15:41:02.496Z,12.63
2022-12-23T15:46:15.578Z,15.38
2022-12-23T15:51:57.822Z,14.45
2022-12-23T15:56:51.361Z,14.90
2022-12-23T16:01:56.205Z,14.20
2022-12-23T16:06:59.199Z,15.07
2022-12-23T16:12:20.607Z,16.67
2022-12-23T16:17:31.387Z,15.75
2022-12-23T16:22:37.891Z,16.30
2022-12-23T16:27:43.866Z,17.45
2022-12-23T16:32:51.948Z,17.35
2022-12-23T16:37:58.948Z,16.60
2022-12-23T16:43:01.763Z,16.88
2022-12-23T16:48:18.167Z,15.32
2022-12-23T16:53:22.218Z,17.88
2022-12-23T16:58:25.711Z,17.30
2022-12-23T17:03:30.001Z,15.48
2022-12-23T17:08:35.481Z,16.35
2022-12-23T17:13:39.822Z,16.33
2022-12-23T17:18:44.010Z,16.33
2022-12-23T17:23:47.037Z,17.45
2022-12-23T17:28:51.662Z,17.50
2022-12-23T17:33:56.872Z,17.00
2022-12-23T17:38:59.779Z,16.77
2022-12-23T17:44:02.900Z,16.67
2022-12-23T17:49:07.051Z,17.60
2022-12-23T17:54:21.463Z,17.13
2022-12-23T17:59:24.716Z,17.38
2022-12-23T18:04:29.031Z,15.68
2022-12-23T18:09:33.167Z,16.77
2022-12-23T18:14:36.027Z,15.93
2022-12-23T18:19:40.269Z,17.00
2022-12-23T18:24:43.560Z,16.23
2022-12-23T18:29:46.970Z,16.27
2022-12-23T18:34:51.688Z,16.50
2022-12-23T18:39:54.541Z,15.52
2022-12-23T18:44:57.306Z,16.52
2022-12-23T18:50:01.510Z,16.05
2022-12-23T18:55:06.598Z,16.60
2022-12-23T19:00:15.038Z,15.65
2022-12-23T19:10:26.382Z,16.67
2022-12-23T19:15:29.442Z,16.30
2022-12-23T19:20:33.699Z,17.48
2022-12-23T19:25:36.935Z,15.65
2022-12-23T19:30:42.576Z,16.42
2022-12-23T19:35:46.848Z,16.10
2022-12-23T19:40:57.627Z,16.25
2022-12-23T19:46:01.917Z,16.77
2022-12-23T19:51:08.388Z,17.80
2022-12-23T19:56:13.198Z,16.48
2022-12-23T20:01:18.319Z,15.65
2022-12-23T20:06:25.358Z,17.05
2022-12-23T20:11:42.336Z,18.02
2022-12-23T20:16:49.342Z,15.52
2022-12-23T20:21:53.799Z,16.77
2022-12-23T20:26:56.733Z,17.13
2022-12-23T20:31:59.475Z,15.05
2022-12-23T20:37:04.601Z,17.80
2022-12-23T20:42:07.561Z,16.88
2022-12-23T20:47:10.750Z,15.65
2022-12-23T20:52:15.090Z,15.63
2022-12-23T20:57:17.904Z,15.48
2022-12-23T21:02:21.392Z,13.68
2022-12-23T21:07:26.585Z,14.90
2022-12-23T21:12:29.491Z,13.18
2022-12-23T21:17:33.719Z,11.82
2022-12-23T21:22:37.988Z,10.80
2022-12-23T21:27:42.465Z,12.60
2022-12-23T21:32:45.256Z,10.95
2022-12-23T21:37:49.407Z,11.63
2022-12-23T21:42:52.287Z,12.55
2022-12-23T21:47:55.571Z,11.98
2022-12-23T21:52:59.722Z,13.45
2022-12-23T21:58:02.562Z,13.23
2022-12-23T22:03:05.436Z,13.18
2022-12-23T22:08:09.782Z,14.43
2022-12-23T22:13:15.874Z,14.73
2022-12-23T22:18:18.965Z,12.43
2022-12-23T22:23:23.196Z,13.77
2022-12-23T22:28:26.533Z,13.30
2022-12-23T22:33:32.795Z,12.00
2022-12-23T22:38:36.893Z,11.55
2022-12-23T22:43:39.731Z,13.07
2022-12-23T22:48:42.479Z,12.55
2022-12-23T22:53:47.437Z,14.43
2022-12-23T22:58:50.858Z,13.38
2022-12-23T23:03:57.191Z,15.30
2022-12-23T23:09:02.202Z,15.15
2022-12-23T23:14:05.222Z,14.57
2022-12-23T23:19:09.238Z,14.18
2022-12-23T23:24:13.560Z,14.18
2022-12-23T23:29:16.519Z,13.25
2022-12-23T23:34:19.359Z,12.82
2022-12-23T23:39:23.555Z,13.35
2022-12-23T23:44:26.342Z,13.23
2022-12-23T23:49:29.239Z,11.65
2022-12-23T23:54:33.439Z,13.57
2022-12-23T23:59:36.218Z,12.88
